Time;durP1;ratioP1;P1;durP2;ratioP2;P2;SDS_P1;SDS_P2;PMS_P1;PMS_P2;Temp;Humidity;BMP_temperature;BMP_pressure;BME280_temperature;BME280_humidity;BME280_pressure;Samples;Min_cycle;Max_cycle;Signal;HPM_P1;HPM_P2
2021/10/17 00:00:20;;;;;;;6.35;4.65;;;;;;;8.34;nan;100928.97;5047062;28;20120;-89
2021/10/17 00:02:48;;;;;;;7.28;5.35;;;;;;;8.29;nan;100926.69;5050679;28;20029;-89
2021/10/17 00:05:20;;;;;;;6.90;5.03;;;;;;;8.33;nan;100932.56;5051782;28;20041;-89
2021/10/17 00:07:51;;;;;;;5.40;4.00;;;;;;;8.30;nan;100923.97;5053523;28;20052;-89
2021/10/17 00:10:31;;;;;;;5.60;3.60;;;;;;;8.32;nan;100930.88;5053670;28;20033;-89
2021/10/17 00:13:00;;;;;;;6.47;4.47;;;;;;;8.28;nan;100936.41;5044612;28;20518;-89
2021/10/17 00:15:29;;;;;;;5.88;4.80;;;;;;;8.31;nan;100951.13;5052049;28;20041;-88
2021/10/17 00:17:56;;;;;;;5.65;4.53;;;;;;;8.27;nan;100947.94;5051074;28;20041;-88
2021/10/17 00:20:26;;;;;;;8.00;5.05;;;;;;;8.26;nan;100942.78;5051236;28;20496;-88
2021/10/17 00:22:53;;;;;;;8.20;5.80;;;;;;;8.21;nan;100943.16;5051493;28;20041;-88
2021/10/17 00:25:20;;;;;;;8.55;6.53;;;;;;;8.10;nan;100948.47;5053736;28;20124;-88
2021/10/17 00:27:50;;;;;;;8.07;6.35;;;;;;;7.99;nan;100944.09;5024933;28;20044;-90
2021/10/17 00:30:19;;;;;;;9.25;6.50;;;;;;;7.86;nan;100946.03;5034413;28;20141;-90
2021/10/17 00:32:46;;;;;;;8.63;6.65;;;;;;;7.79;nan;100939.56;5052306;28;20045;-89
2021/10/17 00:35:13;;;;;;;8.80;6.35;;;;;;;7.82;nan;100952.53;5050211;28;20099;-90
2021/10/17 00:37:40;;;;;;;8.57;5.78;;;;;;;7.69;nan;100943.91;5053075;28;20040;-89
2021/10/17 00:40:10;;;;;;;7.18;5.95;;;;;;;7.72;nan;100939.22;5058766;28;20066;-90
2021/10/17 00:42:41;;;;;;;8.80;6.63;;;;;;;7.71;nan;100928.84;5054459;28;20090;-90
2021/10/17 00:45:17;;;;;;;9.50;7.10;;;;;;;7.70;nan;100943.81;5057739;28;20041;-90
2021/10/17 00:47:52;;;;;;;8.05;6.20;;;;;;;7.55;nan;100937.13;5062477;28;20045;-90
2021/10/17 00:50:25;;;;;;;9.48;6.18;;;;;;;7.49;nan;100929.72;5027884;28;20120;-89
2021/10/17 00:53:03;;;;;;;7.70;6.38;;;;;;;7.43;nan;100944.19;5065370;28;20052;-90
2021/10/17 00:56:04;;;;;;;8.90;6.88;;;;;;;7.30;nan;100936.44;5064127;28;20068;-90
2021/10/17 00:58:58;;;;;;;8.60;7.00;;;;;;;7.19;nan;100939.88;5035935;28;20118;-90
2021/10/17 01:01:39;;;;;;;9.57;6.50;;;;;;;7.14;nan;100946.47;5058132;28;20037;-90
2021/10/17 01:04:28;;;;;;;8.18;6.53;;;;;;;7.03;nan;100931.50;5065949;28;20115;-90
2021/10/17 01:07:16;;;;;;;8.50;6.72;;;;;;;6.97;nan;100934.63;5057849;28;20601;-89
2021/10/17 01:09:48;;;;;;;10.27;7.13;;;;;;;6.84;nan;100926.88;5055468;28;20037;-90
2021/10/17 01:12:35;;;;;;;7.60;6.40;;;;;;;6.75;nan;100919.69;5054735;28;20458;-90
2021/10/17 01:15:32;;;;;;;8.15;6.47;;;;;;;6.71;nan;100923.50;5061698;28;20017;-91
2021/10/17 01:18:21;;;;;;;8.10;6.60;;;;;;;6.61;nan;100920.72;5054927;28;20033;-91
2021/10/17 01:21:01;;;;;;;8.25;6.55;;;;;;;6.59;nan;100928.72;5061505;28;20094;-90
2021/10/17 01:23:48;;;;;;;6.85;5.80;;;;;;;6.61;nan;100927.78;5065655;28;20452;-91
2021/10/17 01:26:23;;;;;;;7.40;5.90;;;;;;;6.55;nan;100915.94;5046334;28;20032;-90
2021/10/17 01:28:52;;;;;;;8.50;6.43;;;;;;;6.44;nan;100916.75;5075100;28;20036;-91
2021/10/17 01:31:50;;;;;;;8.98;6.55;;;;;;;6.45;nan;100915.78;5069573;28;20040;-90
2021/10/17 01:34:26;;;;;;;8.00;6.80;;;;;;;6.34;nan;100916.59;5032103;28;20690;-91
2021/10/17 01:37:00;;;;;;;8.45;6.38;;;;;;;6.32;nan;100912.44;5067537;28;20041;-91
2021/10/17 01:39:50;;;;;;;8.05;6.10;;;;;;;6.36;nan;100926.97;5055402;28;20117;-90
2021/10/17 01:42:21;;;;;;;8.20;6.07;;;;;;;6.46;nan;100925.34;5040708;28;20047;-91
2021/10/17 01:44:58;;;;;;;10.57;7.13;;;;;;;6.50;nan;100926.78;5052117;28;20463;-91
2021/10/17 01:47:40;;;;;;;7.22;6.20;;;;;;;6.51;nan;100931.09;5063005;28;20480;-91
2021/10/17 01:50:53;;;;;;;9.38;6.72;;;;;;;6.55;nan;100924.66;5064595;28;20040;-91
2021/10/17 01:53:47;;;;;;;7.78;5.90;;;;;;;6.57;nan;100922.75;5058224;28;20044;-91
2021/10/17 01:56:27;;;;;;;7.38;5.68;;;;;;;6.67;nan;100922.88;5055343;28;20484;-90
2021/10/17 01:59:11;;;;;;;7.18;5.68;;;;;;;6.66;nan;100921.22;5054814;28;20127;-90
2021/10/17 02:01:47;;;;;;;8.35;6.63;;;;;;;6.71;nan;100926.13;5054737;28;20095;-90
2021/10/17 02:04:40;;;;;;;9.32;6.70;;;;;;;6.65;nan;100926.56;5038812;28;20040;-90
2021/10/17 02:07:28;;;;;;;8.85;6.78;;;;;;;6.68;nan;100932.44;5058295;28;20096;-90
2021/10/17 02:10:14;;;;;;;9.18;6.80;;;;;;;6.71;nan;100932.22;5051648;28;20041;-90
2021/10/17 02:12:46;;;;;;;9.45;6.40;;;;;;;6.66;nan;100923.84;5048395;28;20064;-90
2021/10/17 02:15:19;;;;;;;7.40;5.80;;;;;;;6.61;nan;100920.72;5074264;28;20095;-90
2021/10/17 02:17:59;;;;;;;10.88;7.53;;;;;;;6.59;nan;100915.56;5054434;28;20052;-90
2021/10/17 02:20:36;;;;;;;11.35;8.20;;;;;;;6.58;nan;100919.19;5052890;28;20032;-90
2021/10/17 02:23:14;;;;;;;10.32;7.57;;;;;;;6.66;nan;100925.63;5055198;28;20041;-90
2021/10/17 02:25:48;;;;;;;11.75;7.78;;;;;;;6.65;nan;100924.81;5064952;28;20041;-91
2021/10/17 02:28:45;;;;;;;11.88;8.13;;;;;;;6.62;nan;100927.66;5040582;28;20418;-90
2021/10/17 02:31:59;;;;;;;13.95;9.93;;;;;;;6.63;nan;100918.00;5064385;28;20016;-90
2021/10/17 02:34:38;;;;;;;17.42;10.90;;;;;;;6.70;nan;100932.34;5045348;28;20040;-90
2021/10/17 02:37:21;;;;;;;15.02;10.60;;;;;;;6.63;nan;100920.63;5060445;28;20124;-91
2021/10/17 02:40:03;;;;;;;18.33;12.57;;;;;;;6.65;nan;100921.31;5049671;28;20063;-91
2021/10/17 02:42:45;;;;;;;19.63;13.10;;;;;;;6.75;nan;100919.69;5014054;28;21109;-90
2021/10/17 02:45:19;;;;;;;20.10;13.27;;;;;;;6.81;nan;100924.44;5055104;28;20070;-91
2021/10/17 02:48:09;;;;;;;20.27;12.55;;;;;;;6.76;nan;100909.03;5049812;28;20514;-91
2021/10/17 02:50:46;;;;;;;17.92;12.25;;;;;;;6.79;nan;100919.34;5068004;28;20037;-90
2021/10/17 02:53:33;;;;;;;26.43;14.37;;;;;;;6.71;nan;100915.59;5056850;28;20029;-90
2021/10/17 02:56:08;;;;;;;21.85;13.25;;;;;;;6.65;nan;100913.44;5068240;28;20423;-90
2021/10/17 02:58:59;;;;;;;21.90;13.48;;;;;;;6.81;nan;100922.66;5052983;28;20060;-90
2021/10/17 03:01:36;;;;;;;22.15;13.00;;;;;;;6.83;nan;100921.72;5056164;28;20178;-90
2021/10/17 03:04:09;;;;;;;23.88;13.95;;;;;;;6.95;nan;100920.78;5071287;28;20067;-91
2021/10/17 03:06:40;;;;;;;22.35;12.38;;;;;;;6.87;nan;100917.91;5057866;28;20473;-91
2021/10/17 03:09:16;;;;;;;22.50;12.90;;;;;;;6.90;nan;100915.03;5049094;28;20041;-90
2021/10/17 03:11:51;;;;;;;20.48;13.27;;;;;;;6.86;nan;100916.22;5048563;28;20045;-90
2021/10/17 03:14:30;;;;;;;17.63;11.32;;;;;;;6.80;nan;100920.16;5051272;28;20033;-90
2021/10/17 03:17:32;;;;;;;20.48;11.85;;;;;;;6.73;nan;100911.91;5065299;28;20488;-90
2021/10/17 03:20:04;;;;;;;17.40;11.10;;;;;;;6.72;nan;100920.75;5074286;28;20097;-90
2021/10/17 03:22:38;;;;;;;16.48;11.57;;;;;;;6.68;nan;100921.94;5045983;28;20033;-90
2021/10/17 03:25:16;;;;;;;18.02;11.60;;;;;;;6.72;nan;100912.00;5056424;28;20094;-90
2021/10/17 03:27:51;;;;;;;19.92;11.57;;;;;;;6.80;nan;100910.47;5069040;28;20078;-90
2021/10/17 03:30:28;;;;;;;15.98;10.73;;;;;;;6.77;nan;100915.16;5023926;28;20049;-90
2021/10/17 03:32:58;;;;;;;16.55;11.20;;;;;;;6.75;nan;100915.25;5054994;28;20103;-90
2021/10/17 03:35:36;;;;;;;14.18;10.20;;;;;;;6.75;nan;100903.91;5053776;28;20423;-90
2021/10/17 03:38:10;;;;;;;16.05;10.82;;;;;;;6.74;nan;100892.53;5036695;28;20041;-90
2021/10/17 03:40:46;;;;;;;16.23;11.27;;;;;;;6.76;nan;100887.19;5031382;28;20045;-90
2021/10/17 03:43:31;;;;;;;14.70;10.70;;;;;;;6.77;nan;100889.69;5056993;28;20130;-90
2021/10/17 03:46:00;;;;;;;15.38;10.45;;;;;;;6.84;nan;100904.97;5044411;28;20040;-90
2021/10/17 03:48:32;;;;;;;12.85;8.77;;;;;;;6.86;nan;100896.00;5047071;28;20116;-91
2021/10/17 03:51:13;;;;;;;15.45;9.57;;;;;;;6.84;nan;100890.06;5050664;28;20429;-90
2021/10/17 03:53:53;;;;;;;14.50;9.95;;;;;;;6.90;nan;100894.84;5059833;28;20033;-90
2021/10/17 03:56:45;;;;;;;15.43;9.73;;;;;;;6.92;nan;100899.97;5046273;28;20522;-90
2021/10/17 03:59:55;;;;;;;15.38;10.90;;;;;;;6.83;nan;100893.63;5042934;28;20527;-90
2021/10/17 04:02:30;;;;;;;13.98;10.02;;;;;;;6.84;nan;100897.97;5050568;28;20041;-90
2021/10/17 04:05:02;;;;;;;15.40;9.77;;;;;;;6.93;nan;100901.63;5039247;28;20033;-90
2021/10/17 04:07:46;;;;;;;15.88;10.63;;;;;;;6.95;nan;100895.31;5033484;28;20060;-90
2021/10/17 04:10:28;;;;;;;13.45;9.05;;;;;;;6.89;nan;100885.28;5048827;28;20041;-90
2021/10/17 04:13:02;;;;;;;14.07;9.23;;;;;;;6.95;nan;100897.09;5052611;28;20543;-90
2021/10/17 04:15:50;;;;;;;13.43;9.13;;;;;;;6.97;nan;100890.78;5054852;28;20036;-90
2021/10/17 04:18:30;;;;;;;13.18;9.25;;;;;;;6.99;nan;100896.75;5051932;28;20159;-91
2021/10/17 04:21:29;;;;;;;13.70;9.20;;;;;;;6.94;nan;100891.03;5061876;28;20036;-90
2021/10/17 04:24:08;;;;;;;12.82;9.07;;;;;;;6.92;nan;100887.66;5048257;28;20040;-90
2021/10/17 04:26:44;;;;;;;15.43;9.88;;;;;;;6.93;nan;100905.09;5044606;28;20053;-90
2021/10/17 04:29:34;;;;;;;14.27;9.82;;;;;;;6.89;nan;100901.06;5029213;28;20087;-90
2021/10/17 04:32:06;;;;;;;12.68;9.18;;;;;;;6.88;nan;100896.75;5057047;28;20037;-90
2021/10/17 04:35:01;;;;;;;13.40;9.60;;;;;;;6.92;nan;100906.06;5049189;28;20070;-90
2021/10/17 04:37:40;;;;;;;12.75;9.55;;;;;;;6.93;nan;100904.28;5062535;28;20450;-91
2021/10/17 04:40:28;;;;;;;12.40;9.05;;;;;;;6.92;nan;100905.25;5044966;28;20083;-90
2021/10/17 04:43:20;;;;;;;13.55;9.77;;;;;;;6.93;nan;100901.63;5063431;28;20086;-90
2021/10/17 04:46:13;;;;;;;14.50;10.20;;;;;;;6.87;nan;100902.13;5056169;28;20068;-90
2021/10/17 04:48:45;;;;;;;13.57;9.60;;;;;;;6.91;nan;100893.91;5051409;28;20200;-90
2021/10/17 04:51:15;;;;;;;13.00;9.25;;;;;;;6.95;nan;100900.56;5064911;28;20036;-91
2021/10/17 04:53:53;;;;;;;11.80;8.57;;;;;;;6.96;nan;100907.50;5030387;28;20033;-90
2021/10/17 04:56:41;;;;;;;14.82;9.95;;;;;;;6.95;nan;100903.19;5045640;28;20090;-90
2021/10/17 04:59:22;;;;;;;14.63;10.18;;;;;;;6.89;nan;100898.44;5064618;28;20049;-90
2021/10/17 05:01:59;;;;;;;15.75;10.82;;;;;;;6.94;nan;100903.34;5055090;28;20120;-90
2021/10/17 05:05:03;;;;;;;14.60;10.82;;;;;;;6.80;nan;100889.44;5061734;28;20044;-90
2021/10/17 05:07:35;;;;;;;14.57;10.32;;;;;;;6.74;nan;100897.78;5056272;28;20457;-90
2021/10/17 05:10:39;;;;;;;14.45;10.65;;;;;;;6.60;nan;100892.75;5054494;28;20580;-90
2021/10/17 05:13:20;;;;;;;14.50;10.32;;;;;;;6.55;nan;100900.16;5053960;28;20047;-90
2021/10/17 05:15:57;;;;;;;12.68;9.77;;;;;;;6.50;nan;100910.19;5063145;28;20123;-90
2021/10/17 05:18:32;;;;;;;16.02;10.20;;;;;;;6.36;nan;100893.69;5016888;28;20037;-90
2021/10/17 05:21:09;;;;;;;14.88;10.15;;;;;;;6.31;nan;100900.22;5056969;28;20037;-90
2021/10/17 05:23:47;;;;;;;14.77;10.05;;;;;;;6.28;nan;100908.34;5061741;28;20578;-90
2021/10/17 05:26:37;;;;;;;12.43;9.18;;;;;;;6.22;nan;100914.03;5029983;28;20431;-90
2021/10/17 05:29:34;;;;;;;14.30;10.00;;;;;;;6.14;nan;100912.81;5060266;28;20058;-90
2021/10/17 05:32:12;;;;;;;12.65;9.18;;;;;;;6.09;nan;100922.00;5071675;28;20207;-90
2021/10/17 05:34:47;;;;;;;13.70;9.50;;;;;;;6.05;nan;100915.28;5049981;28;20040;-90
2021/10/17 05:37:35;;;;;;;11.10;8.45;;;;;;;6.11;nan;100920.09;5069253;28;20033;-90
2021/10/17 05:40:16;;;;;;;12.80;8.75;;;;;;;6.20;nan;100918.56;5050274;28;20037;-90
2021/10/17 05:42:55;;;;;;;11.43;8.50;;;;;;;6.26;nan;100932.09;5055731;28;20099;-90
2021/10/17 05:45:34;;;;;;;12.18;8.40;;;;;;;6.24;nan;100926.09;5046253;28;20044;-90
2021/10/17 05:48:11;;;;;;;11.48;8.30;;;;;;;6.32;nan;100934.25;5056057;28;20032;-90
2021/10/17 05:50:55;;;;;;;12.60;8.27;;;;;;;6.40;nan;100927.59;5062090;28;20063;-90
2021/10/17 05:53:47;;;;;;;12.63;9.00;;;;;;;6.49;nan;100937.44;5054927;28;20066;-90
2021/10/17 05:56:22;;;;;;;11.60;8.20;;;;;;;6.54;nan;100938.75;5033028;28;20593;-90
2021/10/17 05:59:09;;;;;;;10.68;7.72;;;;;;;6.53;nan;100934.44;5052848;28;20037;-90
2021/10/17 06:02:01;;;;;;;11.80;7.60;;;;;;;6.59;nan;100938.41;5052091;28;20550;-90
2021/10/17 06:05:01;;;;;;;9.50;7.75;;;;;;;6.70;nan;100954.19;5035050;28;20050;-90
2021/10/17 06:07:40;;;;;;;11.48;7.85;;;;;;;6.69;nan;100957.75;5068755;28;20047;-90
2021/10/17 06:10:20;;;;;;;10.23;7.43;;;;;;;6.79;nan;100957.91;5048302;28;20051;-90
2021/10/17 06:13:05;;;;;;;11.45;7.50;;;;;;;6.83;nan;100953.25;5060424;28;20037;-90
2021/10/17 06:16:00;;;;;;;10.20;7.85;;;;;;;6.83;nan;100956.72;5059149;28;20075;-90
2021/10/17 06:18:58;;;;;;;12.68;8.68;;;;;;;6.94;nan;100962.00;5042629;28;20064;-90
2021/10/17 06:21:39;;;;;;;11.68;8.00;;;;;;;7.02;nan;100959.59;5054030;28;20072;-90
2021/10/17 06:24:27;;;;;;;10.70;7.85;;;;;;;7.16;nan;100961.19;5052513;28;20048;-90
2021/10/17 06:27:18;;;;;;;12.13;7.97;;;;;;;7.08;nan;100970.59;5057794;28;20045;-90
2021/10/17 06:29:58;;;;;;;9.30;6.70;;;;;;;7.10;nan;100972.16;5051221;28;20557;-90
2021/10/17 06:32:32;;;;;;;8.75;6.22;;;;;;;7.14;nan;100975.41;5054760;28;20475;-90
2021/10/17 06:35:14;;;;;;;;;;;;;;;7.18;nan;100982.09;5053990;28;20044;-90
2021/10/17 06:37:50;;;;;;;9.57;6.35;;;;;;;7.26;nan;100969.19;5052156;28;19951;-90
2021/10/17 06:40:29;;;;;;;9.18;7.20;;;;;;;7.27;nan;100976.13;5050868;28;20592;-90
2021/10/17 06:42:59;;;;;;;9.65;7.05;;;;;;;7.28;nan;100988.31;5036939;28;20040;-91
2021/10/17 06:45:49;;;;;;;10.43;7.25;;;;;;;7.33;nan;100983.53;5054009;28;20102;-90
2021/10/17 06:48:22;;;;;;;9.73;7.65;;;;;;;7.36;nan;100983.28;5046048;28;20037;-90
2021/10/17 06:50:53;;;;;;;10.90;6.60;;;;;;;7.48;nan;100980.66;5061966;28;20040;-90
2021/10/17 06:53:52;;;;;;;9.98;6.60;;;;;;;7.52;nan;100992.63;5071319;28;20047;-90
2021/10/17 06:56:25;;;;;;;11.18;6.95;;;;;;;7.55;nan;100992.38;5042112;28;20045;-89
2021/10/17 06:59:23;;;;;;;9.48;6.32;;;;;;;7.61;nan;100989.28;5051985;28;20554;-90
2021/10/17 07:02:35;;;;;;;7.78;5.65;;;;;;;7.76;nan;101001.22;5045617;28;20044;-90
2021/10/17 07:05:38;;;;;;;7.82;6.50;;;;;;;7.81;nan;101003.47;5053221;28;20453;-90
2021/10/17 07:08:15;;;;;;;10.20;7.30;;;;;;;7.85;nan;101005.75;5046465;28;20079;-90
2021/10/17 07:11:03;;;;;;;9.23;6.93;;;;;;;7.89;nan;101006.34;5050679;28;20112;-90
2021/10/17 07:14:05;;;;;;;10.85;7.25;;;;;;;7.96;nan;101007.53;5051019;28;20060;-90
2021/10/17 07:16:49;;;;;;;10.32;7.38;;;;;;;8.07;nan;101012.75;5020476;28;20115;-90
2021/10/17 07:19:34;;;;;;;11.82;7.93;;;;;;;8.05;nan;101003.31;5031311;28;20044;-90
2021/10/17 07:22:16;;;;;;;10.52;7.28;;;;;;;8.10;nan;100995.88;5049250;28;20147;-90
2021/10/17 07:25:04;;;;;;;12.13;7.15;;;;;;;8.22;nan;101013.34;5053686;28;20045;-90
2021/10/17 07:28:03;;;;;;;11.98;8.10;;;;;;;8.27;nan;101005.91;5063773;28;20056;-90
2021/10/17 07:30:35;;;;;;;11.93;8.55;;;;;;;8.34;nan;101005.38;5019845;28;20538;-90
2021/10/17 07:33:37;;;;;;;20.52;10.57;;;;;;;8.37;nan;100999.88;5067355;28;20048;-90
2021/10/17 07:36:23;;;;;;;16.45;10.63;;;;;;;8.41;nan;101009.22;5055144;28;20037;-90
2021/10/17 07:39:06;;;;;;;12.82;9.20;;;;;;;8.40;nan;100997.84;5053256;28;20123;-91
2021/10/17 07:41:54;;;;;;;14.90;8.73;;;;;;;8.50;nan;101005.81;5055321;28;20033;-91
2021/10/17 07:44:42;;;;;;;14.07;9.15;;;;;;;8.58;nan;101018.38;5043528;28;20044;-90
2021/10/17 07:47:25;;;;;;;13.93;9.95;;;;;;;8.43;nan;101010.75;5051727;28;20045;-90
2021/10/17 07:50:12;;;;;;;17.27;10.80;;;;;;;8.52;nan;101014.44;5057125;28;20040;-90
2021/10/17 07:52:52;;;;;;;17.98;11.18;;;;;;;8.46;nan;101022.84;5055822;28;20055;-88
2021/10/17 07:55:37;;;;;;;15.95;10.13;;;;;;;8.22;nan;101015.97;5056378;28;20513;-89
2021/10/17 07:58:29;;;;;;;16.92;11.00;;;;;;;8.38;nan;101007.63;5038126;28;20581;-89
2021/10/17 08:01:18;;;;;;;17.17;10.40;;;;;;;8.44;nan;101011.63;5060873;28;20040;-89
2021/10/17 08:03:54;;;;;;;17.35;10.18;;;;;;;8.55;nan;101011.53;5059910;28;20124;-89
2021/10/17 08:06:36;;;;;;;16.48;10.18;;;;;;;8.58;nan;101018.38;5051541;28;20111;-89
2021/10/17 08:09:21;;;;;;;24.42;12.70;;;;;;;8.70;nan;101017.38;5074859;28;20114;-89
2021/10/17 08:12:09;;;;;;;18.75;12.00;;;;;;;8.67;nan;101013.16;5057416;28;20066;-89
2021/10/17 08:15:13;;;;;;;20.33;11.80;;;;;;;8.75;nan;101009.06;5045706;28;20504;-89
2021/10/17 08:18:03;;;;;;;20.67;12.00;;;;;;;8.74;nan;101004.75;5056388;28;20542;-89
2021/10/17 08:20:52;;;;;;;19.05;11.00;;;;;;;8.81;nan;101009.38;5038665;28;20040;-89
2021/10/17 08:23:31;;;;;;;14.10;9.32;;;;;;;8.89;nan;101006.97;5044402;28;20094;-89
2021/10/17 08:26:25;;;;;;;16.02;10.00;;;;;;;9.11;nan;101011.25;5049686;28;20036;-89
2021/10/17 08:29:02;;;;;;;22.88;12.95;;;;;;;9.22;nan;101012.13;5061329;28;20045;-89
2021/10/17 08:31:43;;;;;;;22.08;12.82;;;;;;;9.39;nan;101008.91;5059589;28;20459;-89
2021/10/17 08:34:18;;;;;;;24.58;13.75;;;;;;;9.29;nan;101014.09;5013358;28;20500;-89
2021/10/17 08:37:33;;;;;;;25.27;12.40;;;;;;;9.38;nan;101004.56;5052946;28;20120;-89
2021/10/17 08:40:32;;;;;;;26.40;14.73;;;;;;;9.24;nan;101012.84;5027910;28;20041;-89
2021/10/17 08:43:29;;;;;;;21.73;12.32;;;;;;;9.56;nan;101010.91;5071906;28;20040;-89
2021/10/17 08:46:30;;;;;;;24.98;13.48;;;;;;;9.73;nan;100998.88;5054673;28;20033;-89
2021/10/17 08:49:10;;;;;;;24.60;13.55;;;;;;;9.93;nan;101002.38;5057996;28;20131;-89
2021/10/17 08:51:50;;;;;;;26.83;12.82;;;;;;;9.99;nan;100995.75;5045218;28;20352;-90
2021/10/17 08:54:39;;;;;;;26.90;13.98;;;;;;;10.13;nan;101013.84;5040344;28;20037;-90
2021/10/17 08:57:18;;;;;;;24.10;13.10;;;;;;;10.16;nan;101007.44;5048052;28;20037;-89
2021/10/17 08:59:52;;;;;;;23.00;13.23;;;;;;;10.11;nan;101005.22;5062918;28;20032;-89
2021/10/17 09:02:46;;;;;;;24.38;14.48;;;;;;;10.38;nan;101019.59;5044540;28;20037;-89
2021/10/17 09:05:41;;;;;;;23.48;13.00;;;;;;;10.19;nan;101007.16;5072861;28;20051;-89
2021/10/17 09:08:26;;;;;;;21.52;13.23;;;;;;;10.11;nan;100999.09;5046442;28;20044;-89
2021/10/17 09:11:01;;;;;;;19.75;12.55;;;;;;;10.26;nan;101013.56;5051558;28;20048;-89
2021/10/17 09:14:11;;;;;;;20.75;13.30;;;;;;;10.41;nan;101000.78;5052769;28;20048;-90
2021/10/17 09:16:54;;;;;;;25.13;14.23;;;;;;;10.53;nan;100999.69;5056998;28;20043;-90
2021/10/17 09:19:33;;;;;;;19.95;12.85;;;;;;;10.63;nan;100999.69;5052919;28;20036;-90
2021/10/17 09:22:16;;;;;;;28.42;14.70;;;;;;;10.80;nan;101001.63;5061645;28;20155;-90
2021/10/17 09:25:03;;;;;;;24.00;14.95;;;;;;;10.87;nan;101001.03;5053397;28;20036;-90
2021/10/17 09:28:07;;;;;;;22.52;13.30;;;;;;;10.68;nan;101010.69;5046171;28;20047;-89
2021/10/17 09:31:04;;;;;;;26.10;15.65;;;;;;;10.46;nan;101003.03;5051992;28;20044;-89
2021/10/17 09:33:58;;;;;;;24.25;14.88;;;;;;;10.79;nan;101007.03;5040583;28;20413;-90
2021/10/17 09:36:34;;;;;;;26.45;15.32;;;;;;;10.93;nan;101003.13;5045663;28;20531;-90
2021/10/17 09:39:17;;;;;;;21.80;13.70;;;;;;;11.05;nan;101016.03;5064035;28;20164;-90
2021/10/17 09:42:17;;;;;;;20.40;13.05;;;;;;;11.09;nan;101016.59;5050608;28;20063;-90
2021/10/17 09:45:20;;;;;;;21.65;13.73;;;;;;;11.25;nan;101016.84;5064311;28;20047;-90
2021/10/17 09:48:34;;;;;;;23.00;15.65;;;;;;;11.34;nan;101017.75;5021687;28;20440;-91
2021/10/17 09:51:11;;;;;;;25.33;16.20;;;;;;;11.23;nan;101013.50;5056820;28;20078;-90
2021/10/17 09:54:29;;;;;;;25.60;15.40;;;;;;;11.10;nan;101017.44;5055320;28;20057;-91
2021/10/17 09:57:08;;;;;;;25.67;15.93;;;;;;;10.97;nan;101007.16;5053576;28;20051;-91
2021/10/17 09:59:54;;;;;;;24.10;15.57;;;;;;;10.92;nan;101014.69;5074240;28;20032;-90
2021/10/17 10:02:58;;;;;;;22.58;15.00;;;;;;;10.97;nan;101017.75;5046188;28;20086;-90
2021/10/17 10:05:37;;;;;;;23.02;15.45;;;;;;;11.16;nan;101015.06;5047349;28;20036;-91
2021/10/17 10:08:34;;;;;;;24.75;15.73;;;;;;;11.23;nan;101018.78;5066768;28;20041;-91
2021/10/17 10:11:13;;;;;;;25.70;16.33;;;;;;;11.21;nan;101014.63;5055606;28;20040;-91
2021/10/17 10:14:35;;;;;;;25.35;17.15;;;;;;;11.16;nan;101006.28;5048808;28;20062;-90
2021/10/17 10:17:29;;;;;;;27.05;16.70;;;;;;;11.39;nan;101022.63;5064481;28;20040;-90
2021/10/17 10:20:25;;;;;;;26.08;16.95;;;;;;;11.45;nan;101009.66;5049128;28;20041;-90
2021/10/17 10:23:20;;;;;;;30.05;18.63;;;;;;;11.46;nan;101010.47;5054092;28;20063;-90
2021/10/17 10:25:58;;;;;;;31.95;19.10;;;;;;;11.45;nan;101012.28;5055506;28;20128;-90
2021/10/17 10:28:53;;;;;;;30.02;18.23;;;;;;;11.57;nan;101023.53;5058596;28;20116;-90
2021/10/17 10:31:52;;;;;;;28.15;18.48;;;;;;;11.66;nan;101016.53;5054928;28;20134;-90
2021/10/17 10:34:39;;;;;;;32.80;19.60;;;;;;;11.72;nan;101010.63;5043815;28;20033;-91
2021/10/17 10:37:38;;;;;;;31.33;18.77;;;;;;;11.52;nan;101009.91;5057863;28;20385;-90
2021/10/17 10:40:37;;;;;;;24.52;15.65;;;;;;;11.71;nan;101001.03;5058579;28;20260;-90
2021/10/17 10:43:21;;;;;;;29.58;18.45;;;;;;;11.43;nan;101010.78;5062510;28;20044;-90
2021/10/17 10:46:14;;;;;;;27.55;17.83;;;;;;;11.73;nan;101008.81;5047294;28;20041;-89
2021/10/17 10:48:49;;;;;;;29.80;18.83;;;;;;;11.79;nan;101005.59;5050584;28;20048;-90
2021/10/17 10:51:42;;;;;;;;;;;;;;;11.66;nan;101012.06;5055089;28;20037;-90
2021/10/17 10:54:35;;;;;;;30.10;19.02;;;;;;;11.64;nan;101014.03;5052895;28;19961;-90
2021/10/17 10:57:30;;;;;;;27.40;17.77;;;;;;;11.75;nan;101012.16;5051710;28;20039;-90
2021/10/17 11:00:15;;;;;;;26.65;17.45;;;;;;;11.95;nan;101012.94;5032013;28;20123;-90
2021/10/17 11:03:13;;;;;;;27.23;18.95;;;;;;;11.86;nan;101007.50;5074172;28;20040;-90
2021/10/17 11:06:16;;;;;;;29.55;19.15;;;;;;;11.90;nan;101002.78;5050841;28;20048;-90
2021/10/17 11:09:27;;;;;;;28.52;17.95;;;;;;;11.90;nan;101003.59;5040575;28;20114;-89
2021/10/17 11:12:11;;;;;;;27.27;16.48;;;;;;;11.99;nan;101001.88;5062108;28;20051;-90
2021/10/17 11:14:47;;;;;;;25.75;16.40;;;;;;;12.05;nan;101008.41;5048020;28;20044;-89
2021/10/17 11:17:28;;;;;;;25.67;17.33;;;;;;;11.88;nan;100996.78;5053861;28;20041;-90
2021/10/17 11:20:27;;;;;;;21.50;14.45;;;;;;;11.81;nan;101009.75;5056630;28;20041;-90
2021/10/17 11:23:07;;;;;;;26.77;18.85;;;;;;;11.87;nan;101011.03;5055157;28;20067;-90
2021/10/17 11:25:41;;;;;;;29.25;18.85;;;;;;;11.61;nan;101008.22;5061125;28;20045;-90
2021/10/17 11:28:14;;;;;;;26.63;18.20;;;;;;;11.48;nan;101004.06;5052470;28;20114;-90
2021/10/17 11:30:51;;;;;;;24.50;17.15;;;;;;;11.61;nan;101003.75;5033962;28;20096;-90
2021/10/17 11:33:38;;;;;;;22.73;15.80;;;;;;;11.71;nan;101002.84;5041591;28;20109;-90
2021/10/17 11:36:17;;;;;;;32.25;20.30;;;;;;;11.48;nan;101006.69;5033179;28;20488;-90
2021/10/17 11:38:53;;;;;;;30.92;19.52;;;;;;;11.64;nan;100997.31;5054713;28;20041;-90
2021/10/17 11:41:27;;;;;;;28.13;18.25;;;;;;;11.63;nan;100998.28;5039647;28;20125;-90
2021/10/17 11:44:11;;;;;;;25.63;16.27;;;;;;;11.47;nan;100985.69;5035700;28;20036;-90
2021/10/17 11:46:49;;;;;;;25.13;15.82;;;;;;;11.54;nan;100991.22;5043861;28;20040;-90
2021/10/17 11:49:49;;;;;;;23.15;14.48;;;;;;;11.60;nan;100991.47;5056857;28;20602;-90
2021/10/17 11:52:32;;;;;;;25.75;16.17;;;;;;;11.86;nan;100988.13;5026600;28;20047;-91
2021/10/17 11:55:15;;;;;;;27.23;16.80;;;;;;;11.85;nan;100991.75;5072798;28;20040;-90
2021/10/17 11:58:00;;;;;;;24.90;15.77;;;;;;;11.73;nan;100982.31;5055865;28;20086;-90
2021/10/17 12:00:35;;;;;;;23.17;14.23;;;;;;;11.56;nan;100984.81;5045258;28;20078;-90
2021/10/17 12:03:17;;;;;;;25.98;16.40;;;;;;;11.55;nan;100991.06;5048460;28;20043;-90
2021/10/17 12:05:50;;;;;;;25.60;16.15;;;;;;;11.62;nan;100991.31;5037127;28;20052;-90
2021/10/17 12:08:34;;;;;;;28.15;17.02;;;;;;;11.60;nan;100983.50;5049966;28;20050;-90
2021/10/17 12:11:23;;;;;;;25.17;15.95;;;;;;;11.45;nan;100975.22;5071858;28;20042;-90
2021/10/17 12:13:57;;;;;;;22.42;14.27;;;;;;;11.47;nan;100973.28;5055470;28;20033;-90
2021/10/17 12:16:53;;;;;;;28.20;17.08;;;;;;;11.44;nan;100980.66;5045646;28;20071;-90
2021/10/17 12:20:16;;;;;;;30.38;17.60;;;;;;;11.55;nan;100979.66;5058365;28;20073;-92
2021/10/17 12:22:47;;;;;;;32.33;18.33;;;;;;;11.50;nan;100980.09;5056354;28;20519;-91
2021/10/17 12:25:30;;;;;;;30.80;18.23;;;;;;;11.42;nan;100980.00;5039291;28;20108;-91
2021/10/17 12:28:22;;;;;;;29.77;17.88;;;;;;;11.31;nan;100983.66;5047305;28;20044;-90
2021/10/17 12:30:58;;;;;;;28.88;16.85;;;;;;;11.22;nan;100980.03;5071046;28;20037;-91
2021/10/17 12:33:42;;;;;;;30.02;17.92;;;;;;;11.20;nan;100981.16;5055844;28;20059;-91
2021/10/17 12:36:22;;;;;;;31.70;17.83;;;;;;;11.32;nan;100985.34;5041916;28;20040;-91
2021/10/17 12:39:03;;;;;;;30.75;17.65;;;;;;;11.15;nan;100981.59;5075476;28;20637;-90
2021/10/17 12:41:30;;;;;;;34.38;18.55;;;;;;;11.17;nan;100984.13;5032619;28;20064;-90
2021/10/17 12:44:11;;;;;;;30.35;17.40;;;;;;;11.17;nan;100981.47;5055729;28;20064;-90
2021/10/17 12:46:40;;;;;;;29.67;18.13;;;;;;;11.17;nan;100986.75;5060562;28;20090;-90
2021/10/17 12:49:28;;;;;;;30.25;17.25;;;;;;;11.05;nan;100980.81;5070307;28;20657;-90
2021/10/17 12:51:57;;;;;;;30.45;17.83;;;;;;;11.15;nan;100980.78;5060849;28;20040;-90
2021/10/17 12:54:42;;;;;;;32.00;17.70;;;;;;;11.30;nan;100970.53;5052101;28;20047;-91